Tuesday, November 21, 2017, 3:45 PM GMT
Back to Local

CWFQ, Frelighsburg

Location: , , Canada Lat: 45.05
Local Time: 3:45 PM GMT (15:45 GMT) Lon: -72.833
Time Zone: GMT Elev: 498 ft

Show me the last for .
Show Decoded

2017-11-21 15:00 METAR CWFQ 211500Z AUTO 17011G19KT 05/M04 RMK AO1 SOG 02 6018 PK WND 17022/1435
                 SLP100 T00511044 =
2017-11-21 14:00 METAR CWFQ 211400Z AUTO 17011G18KT 03/M04 RMK AO1 SOG 02 8019 PK WND 20018/1343
                 SLP104 T00331043 =
2017-11-21 13:00 METAR CWFQ 211300Z AUTO 16008KT M00/M04 RMK AO1 SOG 02 8012 PK WND 18017/1207
                 SLP115 T10041041 =
2017-11-21 12:00 METAR CWFQ 211200Z AUTO 16008KT M00/M04 RMK AO1 SOG 02 8009 SLP120 T10021038 =
2017-11-21 11:00 METAR CWFQ 211100Z AUTO 16006KT M02/M04 RMK AO1 SOG 02 7008 SLP125 T10201043 =
2017-11-21 10:00 METAR CWFQ 211000Z AUTO 16006KT M01/M03 RMK AO1 SOG 01 6010 SLP127 T10111032 =
2017-11-21 09:00 METAR CWFQ 210900Z AUTO 16006KT M03/M05 RMK AO1 SOG 01 6015 SLP130 T10271048 =
2017-11-21 08:00 METAR CWFQ 210800Z AUTO 16006KT M04/M06 RMK AO1 SOG 01 6018 SLP133 T10401060 =
2017-11-21 07:00 METAR CWFQ 210700Z AUTO 16006KT M05/M08 RMK AO1 SOG 02 8017 SLP139 T10511078 =
2017-11-21 06:00 METAR CWFQ 210600Z AUTO 15004KT M06/M09 RMK AO1 SOG 02 8013 SLP146 T10611089 =
2017-11-21 05:00 METAR CWFQ 210500Z AUTO 16004KT M07/M09 RMK AO1 SOG 02 8009 SLP152 T10671089 =
2017-11-21 04:00 METAR CWFQ 210400Z AUTO 16004KT M08/M09 RMK AO1 SOG 02 8004 SLP157 T10761092 =
2017-11-21 03:00 METAR CWFQ 210300Z AUTO 17003KT M08/M09 RMK AO1 SOG 02 0003 SLP160 T10821093 =
2017-11-21 02:00 METAR CWFQ 210200Z AUTO 18002KT M09/M10 RMK AO1 SOG 02 1011 SLP163 T10891104 =
2017-11-21 01:00 METAR CWFQ 210100Z AUTO 20001KT M09/M10 RMK AO1 SOG 02 1020 SLP162 T10871101 =
2017-11-21 00:00 METAR CWFQ 210000Z AUTO 00000KT M08/M09 RMK AO1 SOG 02 1024 SLP157 T10771092
                 50005 =
2017-11-20 23:00 METAR CWFQ 202300Z AUTO 28001KT M08/M09 RMK AO1 SOG 02 3025 SLP151 T10751092
                 50005 =
2017-11-20 22:00 METAR CWFQ 202200Z AUTO 30002KT M07/M09 RMK AO1 SOG 02 3022 SLP140 T10721087
                 50005 =
2017-11-20 21:00 METAR CWFQ 202100Z AUTO 29002KT M07/M09 RMK AO1 SOG 03 3018 SLP131 T10681090
                 50005 =
2017-11-20 20:00 METAR CWFQ 202000Z AUTO 29003KT M07/M09 RMK AO1 2PAST HR SOG 03 3012 SLP124
                 P0001 T10661087 50005 =
2017-11-20 19:00 METAR CWFQ 201900Z AUTO 30004KT M07/M08 RMK AO1 3PAST HR SOG 02 3003 SLP117
                 P0001 T10691084 50003 =
2017-11-20 18:00 METAR CWFQ 201800Z AUTO 29002KT M06/M11 RMK AO1 SOG 02 5001 SLP112 T10611108 =
2017-11-20 17:00 METAR CWFQ 201700Z AUTO 29005KT M06/M12 RMK AO1 SOG 02 0001 SLP111 T10591119 =
2017-11-20 16:00 METAR CWFQ 201600Z AUTO 29004KT M06/M12 RMK AO1 SOG 02 1010 SLP114 T10631118 =

Support USWX by starting your Amazon purchase here.